Flight Track Log - Related Links

Times and Time Zones

All times are in EDT time to prevent confusion due to time zone crossing. See the SWA499 flight status page for this flight to view local times or setup timezone preferences in your user account.

Time Position Orientation Groundspeed Altitude Reporting Facility
EDT Latitude Longitude Course Direction KTS MPH feet Rate Location/Type
Thu 12:44:50 PM 39.9167 -104.6667 72° East 192 221 7,100  Level Denver TRACON
Thu 12:45:50 PM 39.9500 -104.6000 57° Northeast 243 280 9,100 1,474 Climbing Denver TRACON
Thu 12:46:44 PM 39.9500 -104.5167 90° East 293 337 9,900 1,421 Climbing Denver TRACON
Thu 12:47:44 PM 39.9500 -104.4000 90° East 333 383 11,800 1,465 Climbing Denver TRACON
Thu 12:48:10 PM 39.9408 -104.3367 101° East 341 392 12,000 273 Climbing Denver Center
Thu 12:49:12 PM 39.9144 -104.2153 106° East 349 402 12,200 1,452 Climbing Denver Center
Thu 12:50:00 PM 39.8722 -103.7779 72° East  Level FlightAware Approximate
Thu 12:50:14 PM 39.8936 -104.0744 101° East 371 427 15,000  Level Denver Center
Thu 12:51:16 PM 39.8742 -103.9319 100° East 400 460 18,100 2,780 Climbing Denver Center
Thu 12:52:17 PM 39.8814 -103.8033 86° East 422 486 20,700 2,515 Climbing Denver Center
Thu 12:53:32 PM 39.8950 -103.6233 84° East 420 483 23,800 2,540 Climbing Denver Center
Thu 12:54:34 PM 39.9100 -103.4292 84° East 456 525 26,500 2,274 Climbing Denver Center
Thu 12:55:36 PM 39.9253 -103.2269 84° East 475 547 28,500 1,742 Climbing Denver Center
Thu 12:56:38 PM 39.9386 -103.0447 84° East 498 573 30,100 1,597 Climbing Denver Center
Thu 12:57:40 PM 39.9508 -102.8556 85° East 517 595 31,800 1,872 Climbing Denver Center
Thu 12:58:43 PM 39.9614 -102.6486 86° East 527 606 34,000 1,742 Climbing Denver Center
Thu 12:59:44 PM 39.9717 -102.4997 85° East 520 598 35,400 1,500 Climbing Denver Center
Thu 01:00:59 PM 39.9875 -102.2619 85° East 518 596 37,400 1,533 Climbing Denver Center
Thu 01:02:01 PM 39.9989 -102.0547 86° East 515 593 38,900 774 Climbing Denver Center
Thu 01:03:03 PM 40.0111 -101.8478 86° East 514 592 39,000 48 Climbing Denver Center
Thu 01:04:05 PM 40.0211 -101.6700 86° East 514 592 39,000  Level Denver Center
Thu 01:05:07 PM 40.0336 -101.4639 85° East 512 589 39,000  Level Denver Center
Thu 01:06:09 PM 40.0422 -101.2875 86° East 510 587 39,000  Level Denver Center
Thu 01:07:11 PM 40.0536 -101.0819 86° East 511 588 39,000  Level Denver Center
Thu 01:08:13 PM 40.0625 -100.9058 86° East 511 588 39,000  Level Denver Center
Thu 01:09:16 PM 40.0725 -100.7000 86° East 512 589 39,000  Level Denver Center
Thu 01:11:20 PM 40.0897 -100.3169 87° East 514 592 39,000  Level Denver Center
Thu 01:12:22 PM 40.0978 -100.1397 87° East 514 592 39,000  Level Denver Center
Thu 01:13:24 PM 40.1061 -99.9311 87° East 516 594 39,000  Level Denver Center
Thu 01:14:26 PM 40.1133 -99.7511 87° East 519 597 39,000  Level Denver Center
Thu 01:15:28 PM 40.1214 -99.5411 87° East 520 598 39,000  Level Denver Center
Thu 01:16:30 PM 40.1286 -99.3600 87° East 522 601 39,000  Level Denver Center
Thu 01:17:32 PM 40.1356 -99.1489 87° East 522 601 39,000  Level Denver Center
Thu 01:18:46 PM 40.1414 -98.9678 88° East 521 600 39,000  Level Denver Center
Thu 01:19:32 PM 40.1469 -98.7908 88° East 522 601 39,000  Level Minneapolis Center
Thu 01:20:34 PM 40.1533 -98.6017 87° East 523 602 39,000  Level Minneapolis Center
Thu 01:21:36 PM 40.1583 -98.4117 88° East 523 602 39,000  Level Minneapolis Center
Thu 01:22:38 PM 40.1647 -98.1861 88° East 522 601 39,000  Level Minneapolis Center
Thu 01:23:40 PM 40.1703 -97.9989 88° East 520 598 39,000  Level Minneapolis Center
Thu 01:24:42 PM 40.1744 -97.8111 88° East 519 597 39,000  Level Minneapolis Center
Thu 01:25:45 PM 40.1789 -97.6258 88° East 516 594 39,000 -144 Level Minneapolis Center
Thu 01:26:47 PM 40.1825 -97.4386 88° East 515 593 38,700 -1,500 Descending Minneapolis Center
Thu 01:27:49 PM 40.1867 -97.2164 89° East 514 592 35,900 -2,565 Descending Minneapolis Center
Thu 01:28:51 PM 40.1889 -97.0311 89° East 513 590 33,400 -2,419 Descending Minneapolis Center
Thu 01:29:53 PM 40.1917 -96.8458 89° East 512 589 30,900 -2,323 Descending Minneapolis Center
Thu 01:30:55 PM 40.1928 -96.6622 89° East 509 586 28,600 -2,177 Descending Minneapolis Center
Thu 01:31:57 PM 40.1961 -96.4892 88° East 488 562 26,400 -2,081 Descending Minneapolis Center
Thu 01:32:59 PM 40.1978 -96.3211 89° East 472 543 24,300 -1,790 Descending Minneapolis Center
Thu 01:34:01 PM 40.1711 -96.1389 101° East 441 507 22,700 -1,839 Descending Minneapolis Center
Thu 01:35:03 PM 40.1139 -96.0117 120° Southeast 413 475 20,500 -1,887 Descending Minneapolis Center
Thu 01:36:05 PM 40.0586 -95.8836 119° Southeast 408 470 18,800 -1,500 Descending Minneapolis Center
Thu 01:37:07 PM 40.0042 -95.7628 120° Southeast 395 455 17,400 -1,597 Descending Minneapolis Center
Thu 01:38:09 PM 39.9519 -95.6458 120° Southeast 381 438 15,500 -1,839 Descending Minneapolis Center
Thu 01:39:11 PM 39.8997 -95.5308 121° Southeast 373 429 13,600 -1,722 Descending Minneapolis Center
Thu 01:40:04 PM 39.8447 -95.4147 122° Southeast 367 422 12,200 -1,263 Descending Kansas City Center
Thu 01:41:05 PM 39.7778 -95.3383 139° Southeast 334 384 11,200 -968 Descending Kansas City Center
Thu 01:42:08 PM 39.7264 -95.2444 125° Southeast 331 381 10,200 -912 Descending Kansas City Center
Thu 01:43:10 PM 39.6697 -95.1414 126° Southeast 313 360 9,300 -1,122 Descending Kansas City Center
Thu 01:44:11 PM 39.6228 -95.0539 125° Southeast 308 354 7,900 -1,403 Descending Kansas City Center
Thu 01:45:14 PM 39.5681 -94.9553 126° Southeast 299 344 6,400 -919 Descending Kansas City Center
Thu 01:46:15 PM 39.5247 -94.8769 126° Southeast 282 325 6,000 -864 Descending Kansas City Center
Thu 01:47:19 PM 39.4808 -94.7967 125° Southeast 244 281 4,600 -1,056 Descending Kansas City Center
Thu 01:48:20 PM 39.4458 -94.7344 126° Southeast 224 258 3,800 -968 Descending Kansas City Center
Thu 01:49:23 PM 39.3978 -94.6989 150° Southeast 181 208 2,600 -960 Descending Kansas City Center
Thu 01:50:25 PM 39.3589 -94.7097 192° South 148 170 1,800 -683 Descending Kansas City Center
Thu 01:51:26 PM 39.3247 -94.7203 193° South 133 153 1,200 -590 Descending Kansas City Center

Login

Don't have an account? Register now (free) for customized features, flight alerts, and more!